createdAt,value
2022-12-08T00:02:24.466Z,24.87
2022-12-08T00:06:48.187Z,24.97
2022-12-08T00:10:52.972Z,22.27
2022-12-08T00:14:56.301Z,22.13
2022-12-08T00:18:59.477Z,23.30
2022-12-08T00:23:04.326Z,21.50
2022-12-08T00:27:09.414Z,23.90
2022-12-08T00:31:13.167Z,22.87
2022-12-08T00:35:16.650Z,24.37
2022-12-08T00:39:25.882Z,25.77
2022-12-08T00:43:30.552Z,23.00
2022-12-08T00:47:33.878Z,22.57
2022-12-08T00:51:37.308Z,27.27
2022-12-08T00:55:40.692Z,25.67
2022-12-08T00:59:45.363Z,26.63
2022-12-08T01:03:48.946Z,24.30
2022-12-08T01:07:52.174Z,24.90
2022-12-08T01:11:55.608Z,23.87
2022-12-08T01:16:00.206Z,23.00
2022-12-08T01:20:03.880Z,23.10
2022-12-08T01:24:08.110Z,21.93
2022-12-08T01:28:11.421Z,25.50
2022-12-08T01:32:16.013Z,24.60
2022-12-08T01:36:22.171Z,23.50
2022-12-08T01:40:25.551Z,22.77
2022-12-08T01:44:59.023Z,23.07
2022-12-08T01:49:08.619Z,24.83
2022-12-08T01:53:15.793Z,24.27
2022-12-08T01:57:24.337Z,22.67
2022-12-08T02:01:27.723Z,24.17
2022-12-08T02:05:34.611Z,24.33
2022-12-08T02:09:39.543Z,22.93
2022-12-08T02:13:44.167Z,22.50
2022-12-08T02:17:59.966Z,24.60
2022-12-08T02:22:11.858Z,24.30
2022-12-08T02:27:06.144Z,25.67
2022-12-08T02:31:21.821Z,27.50
2022-12-08T02:35:34.285Z,25.67
2022-12-08T02:39:43.888Z,25.57
2022-12-08T02:43:50.108Z,25.53
2022-12-08T02:47:54.036Z,24.67
2022-12-08T02:52:07.903Z,26.80
2022-12-08T02:56:24.205Z,25.10
2022-12-08T03:00:31.252Z,25.70
2022-12-08T03:04:42.662Z,25.80
2022-12-08T03:08:53.055Z,24.33
2022-12-08T03:13:01.878Z,24.40
2022-12-08T03:17:06.822Z,25.57
2022-12-08T03:21:11.927Z,24.40
2022-12-08T03:25:18.738Z,25.20
2022-12-08T03:29:22.219Z,26.90
2022-12-08T03:33:30.207Z,25.30
2022-12-08T03:37:36.788Z,23.60
2022-12-08T03:41:41.506Z,25.73
2022-12-08T03:45:44.695Z,25.30
2022-12-08T03:49:48.000Z,23.53
2022-12-08T03:53:51.716Z,24.90
2022-12-08T03:57:56.381Z,23.10
2022-12-08T04:01:59.688Z,22.10
2022-12-08T04:06:03.068Z,22.97
2022-12-08T04:10:07.549Z,23.10
2022-12-08T04:14:12.464Z,23.13
2022-12-08T04:18:15.969Z,22.20
2022-12-08T04:22:19.242Z,22.97
2022-12-08T04:26:22.488Z,22.07
2022-12-08T04:30:28.595Z,20.33
2022-12-08T04:34:31.807Z,21.40
2022-12-08T04:38:35.782Z,23.53
2022-12-08T04:42:39.319Z,21.03
2022-12-08T04:46:44.091Z,19.73
2022-12-08T04:50:47.506Z,19.17
2022-12-08T04:54:51.869Z,21.70
2022-12-08T04:58:55.111Z,18.50
2022-12-08T05:02:59.750Z,21.27
2022-12-08T05:07:03.294Z,20.33
2022-12-08T05:11:08.162Z,19.60
2022-12-08T05:15:11.930Z,18.40
2022-12-08T05:19:17.577Z,19.10
2022-12-08T05:23:21.135Z,18.07
2022-12-08T05:27:24.358Z,16.07
2022-12-08T05:31:27.903Z,19.17
2022-12-08T05:35:32.717Z,17.00
2022-12-08T05:39:36.314Z,15.70
2022-12-08T05:43:39.527Z,16.43
2022-12-08T05:47:42.909Z,18.70
2022-12-08T05:51:47.565Z,17.70
2022-12-08T05:55:50.940Z,17.73
2022-12-08T05:59:54.159Z,17.23
2022-12-08T06:03:58.992Z,17.90
2022-12-08T06:08:03.809Z,18.53
2022-12-08T06:12:07.799Z,17.70
2022-12-08T06:16:11.086Z,17.27
2022-12-08T06:20:14.975Z,18.50
2022-12-08T06:24:19.734Z,17.07
2022-12-08T06:28:22.921Z,17.70
2022-12-08T06:32:27.704Z,18.00
2022-12-08T06:36:31.666Z,17.20
2022-12-08T06:40:36.355Z,17.30
2022-12-08T06:44:40.698Z,16.47
2022-12-08T06:48:44.145Z,18.10
2022-12-08T06:52:56.919Z,15.43
2022-12-08T06:57:03.193Z,16.83
2022-12-08T07:01:08.467Z,15.03
2022-12-08T07:05:11.803Z,13.93
2022-12-08T07:09:15.251Z,17.37
2022-12-08T07:13:21.133Z,19.00
2022-12-08T07:17:24.633Z,15.57
2022-12-08T07:21:27.942Z,18.87
2022-12-08T07:25:31.252Z,20.17
2022-12-08T07:29:35.957Z,19.43
2022-12-08T07:33:39.169Z,19.80
2022-12-08T07:37:42.841Z,17.37
2022-12-08T07:41:46.239Z,17.60
2022-12-08T07:45:51.588Z,19.77
2022-12-08T07:49:54.976Z,19.00
2022-12-08T07:53:58.147Z,20.00
2022-12-08T07:58:01.603Z,17.67
2022-12-08T08:02:23.499Z,16.80
2022-12-08T08:06:28.746Z,19.03
2022-12-08T08:10:32.115Z,20.20
2022-12-08T08:14:35.326Z,17.47
2022-12-08T08:18:40.450Z,17.00
2022-12-08T08:22:43.661Z,16.80
2022-12-08T08:26:47.014Z,17.07
2022-12-08T08:30:50.250Z,17.43
2022-12-08T08:34:55.019Z,18.30
2022-12-08T08:38:58.423Z,18.60
2022-12-08T08:43:02.082Z,16.90
2022-12-08T08:47:05.462Z,17.40
2022-12-08T08:51:12.043Z,16.93
2022-12-08T08:55:15.509Z,17.77
2022-12-08T08:59:18.725Z,17.70
2022-12-08T09:03:24.070Z,17.27
2022-12-08T09:07:28.722Z,16.10
2022-12-08T09:11:33.113Z,16.87
2022-12-08T09:15:36.575Z,17.27
2022-12-08T09:19:39.860Z,21.07
2022-12-08T09:23:45.585Z,18.00
2022-12-08T09:27:48.762Z,13.90
2022-12-08T09:31:52.339Z,16.33
2022-12-08T09:35:55.628Z,15.57
2022-12-08T09:40:00.191Z,13.50
2022-12-08T09:44:15.436Z,17.40
2022-12-08T09:48:21.679Z,15.60
2022-12-08T09:52:29.263Z,16.00
2022-12-08T09:56:36.640Z,16.33
2022-12-08T10:00:40.970Z,18.70
2022-12-08T10:04:44.487Z,18.00
2022-12-08T10:09:00.039Z,17.73
2022-12-08T10:13:18.244Z,16.70
2022-12-08T10:17:26.119Z,16.67
2022-12-08T10:21:34.410Z,15.57
2022-12-08T10:25:42.409Z,19.63
2022-12-08T10:29:47.025Z,17.07
2022-12-08T10:33:57.848Z,17.63
2022-12-08T10:38:02.983Z,17.10
2022-12-08T10:42:22.152Z,18.47
2022-12-08T10:46:31.358Z,14.27
2022-12-08T10:50:36.826Z,16.60
2022-12-08T10:54:45.092Z,14.80
2022-12-08T10:58:49.357Z,15.90
2022-12-08T11:02:58.872Z,17.03
2022-12-08T11:07:02.752Z,16.10
2022-12-08T11:11:06.140Z,14.50
2022-12-08T11:15:17.076Z,17.57
2022-12-08T11:19:22.935Z,19.33
2022-12-08T11:23:27.935Z,19.17
2022-12-08T11:27:33.722Z,17.17
2022-12-08T11:31:43.642Z,18.30
2022-12-08T11:35:54.983Z,18.60
2022-12-08T11:40:04.451Z,18.70
2022-12-08T11:44:27.189Z,21.00
2022-12-08T11:48:39.891Z,19.50
2022-12-08T11:52:48.187Z,22.17
2022-12-08T11:56:55.135Z,21.80
2022-12-08T12:00:58.695Z,20.63
2022-12-08T12:05:07.184Z,19.37
2022-12-08T12:09:20.448Z,23.17
2022-12-08T12:13:49.529Z,23.17
2022-12-08T12:17:56.828Z,23.10
2022-12-08T12:22:13.034Z,22.50
2022-12-08T12:26:23.304Z,24.30
2022-12-08T12:30:29.278Z,23.10
2022-12-08T12:34:35.321Z,27.50
2022-12-08T12:38:59.939Z,25.37
2022-12-08T12:43:33.074Z,25.53
2022-12-08T12:47:55.551Z,22.33
2022-12-08T12:51:59.345Z,23.60
2022-12-08T12:56:04.398Z,22.43
2022-12-08T13:00:11.703Z,26.93
2022-12-08T13:04:16.389Z,23.47
2022-12-08T13:08:23.903Z,21.77
2022-12-08T13:12:28.317Z,22.90
2022-12-08T13:16:38.583Z,22.33
2022-12-08T13:20:47.254Z,22.40
2022-12-08T13:24:50.775Z,20.07
2022-12-08T13:29:21.425Z,21.70
2022-12-08T13:33:38.966Z,20.27
2022-12-08T13:37:54.347Z,20.50
2022-12-08T13:42:11.480Z,21.90
2022-12-08T13:47:09.277Z,22.80
2022-12-08T13:56:37.489Z,20.50
2022-12-08T13:59:48.421Z,17.00
2022-12-08T14:04:22.193Z,18.47
2022-12-08T14:09:00.152Z,18.80
2022-12-08T14:13:03.287Z,19.33
2022-12-08T14:17:11.020Z,18.40
2022-12-08T14:21:22.085Z,20.00
2022-12-08T14:25:29.226Z,19.70
2022-12-08T14:29:42.584Z,18.87
2022-12-08T14:33:53.220Z,17.73
2022-12-08T14:38:02.035Z,17.90
2022-12-08T14:42:08.341Z,17.50
2022-12-08T14:46:23.484Z,18.07
2022-12-08T14:50:50.108Z,17.50
2022-12-08T14:54:56.541Z,16.27
2022-12-08T14:59:17.313Z,17.80
2022-12-08T15:03:30.780Z,15.70
2022-12-08T15:07:50.345Z,17.13
2022-12-08T15:12:09.729Z,14.57
2022-12-08T15:16:43.553Z,14.93
2022-12-08T15:21:10.864Z,17.87
2022-12-08T15:25:23.632Z,14.80
2022-12-08T15:29:33.717Z,16.60
2022-12-08T15:33:41.809Z,15.80
2022-12-08T15:37:47.153Z,15.77
2022-12-08T15:41:51.445Z,15.47
2022-12-08T15:46:00.726Z,16.93
2022-12-08T15:50:09.421Z,15.97
2022-12-08T15:54:18.283Z,17.20
2022-12-08T16:03:22.438Z,17.60
2022-12-08T16:07:30.134Z,20.67
2022-12-08T16:12:09.607Z,17.43
2022-12-08T16:16:28.298Z,18.10
2022-12-08T16:20:58.883Z,19.27
2022-12-08T16:25:14.634Z,17.40
2022-12-08T16:29:27.738Z,18.63
2022-12-08T16:33:36.200Z,17.17
2022-12-08T16:37:41.689Z,20.00
2022-12-08T16:42:54.946Z,19.67
2022-12-08T16:52:24.314Z,18.80
2022-12-08T16:56:41.544Z,23.13
2022-12-08T17:06:19.875Z,19.27
2022-12-08T17:10:44.053Z,18.40
2022-12-08T17:14:53.067Z,19.60
2022-12-08T17:19:47.047Z,21.10
2022-12-08T17:23:55.949Z,21.00
2022-12-08T17:28:01.377Z,21.83
2022-12-08T17:32:21.043Z,21.17
2022-12-08T17:42:34.354Z,20.80
2022-12-08T17:46:58.488Z,18.43
2022-12-08T17:51:16.630Z,19.83
2022-12-08T17:55:31.260Z,21.17
2022-12-08T17:59:42.514Z,22.97
2022-12-08T18:03:49.202Z,23.83
2022-12-08T18:08:12.144Z,20.50
2022-12-08T18:12:23.654Z,20.00
2022-12-08T18:16:44.028Z,22.87
2022-12-08T18:21:11.274Z,22.37
2022-12-08T18:31:04.774Z,20.00
2022-12-08T18:35:27.642Z,19.20
2022-12-08T18:39:37.371Z,19.00
2022-12-08T18:43:57.838Z,18.07
2022-12-08T18:48:15.262Z,19.90
2022-12-08T18:52:31.023Z,20.40
2022-12-08T18:56:42.295Z,17.60
2022-12-08T19:00:53.242Z,18.60
2022-12-08T19:05:16.819Z,18.40
2022-12-08T19:09:46.548Z,19.70
2022-12-08T19:14:06.952Z,16.87
2022-12-08T19:18:32.159Z,18.30
2022-12-08T19:22:40.796Z,17.97
2022-12-08T19:26:57.671Z,17.47
2022-12-08T19:31:16.477Z,16.67
2022-12-08T19:35:28.353Z,16.73
2022-12-08T19:40:03.140Z,18.67
2022-12-08T19:44:38.318Z,18.37
2022-12-08T19:48:47.171Z,18.00
2022-12-08T19:53:07.017Z,16.30
2022-12-08T19:57:15.033Z,16.23
2022-12-08T20:01:25.470Z,15.80
2022-12-08T20:05:46.346Z,17.17
2022-12-08T20:09:56.784Z,17.03
2022-12-08T20:14:04.442Z,15.20
2022-12-08T20:18:19.379Z,17.13
2022-12-08T20:22:26.373Z,17.13
2022-12-08T20:26:33.482Z,17.67
2022-12-08T20:30:46.440Z,18.03
2022-12-08T20:34:56.731Z,13.57
2022-12-08T20:39:02.565Z,15.33
2022-12-08T20:43:10.943Z,15.50
2022-12-08T20:47:26.090Z,15.17
2022-12-08T20:51:39.802Z,18.90
2022-12-08T20:55:47.164Z,18.67
2022-12-08T21:00:01.625Z,18.30
2022-12-08T21:04:08.537Z,17.27
2022-12-08T21:08:26.434Z,15.67
2022-12-08T21:12:41.558Z,16.40
2022-12-08T21:16:57.582Z,15.57
2022-12-08T21:21:21.357Z,18.20
2022-12-08T21:25:33.901Z,17.10
2022-12-08T21:34:15.902Z,15.93
2022-12-08T21:38:26.487Z,15.47
2022-12-08T21:43:07.288Z,15.80
2022-12-08T21:52:28.169Z,16.83
2022-12-08T21:56:33.618Z,14.43
2022-12-08T22:00:44.557Z,15.57
2022-12-08T22:04:54.518Z,17.50
2022-12-08T22:08:59.747Z,14.73
2022-12-08T22:13:06.573Z,19.57
2022-12-08T22:17:13.378Z,16.00
2022-12-08T22:21:20.800Z,15.03
2022-12-08T22:25:26.852Z,15.30
2022-12-08T22:29:33.225Z,15.17
2022-12-08T22:33:40.382Z,17.27
2022-12-08T22:37:47.846Z,16.10
2022-12-08T22:41:54.664Z,16.50
2022-12-08T22:46:01.480Z,17.03
2022-12-08T22:50:12.309Z,17.50
2022-12-08T22:54:18.298Z,15.80
2022-12-08T22:58:24.039Z,17.20
2022-12-08T23:02:29.697Z,17.43
2022-12-08T23:06:37.067Z,16.90
2022-12-08T23:10:44.334Z,18.03
2022-12-08T23:14:51.826Z,18.23
2022-12-08T23:18:56.555Z,17.10
2022-12-08T23:23:04.696Z,18.43
2022-12-08T23:27:11.727Z,17.53
2022-12-08T23:31:17.811Z,16.90
2022-12-08T23:35:23.161Z,18.13
2022-12-08T23:39:30.950Z,15.30
2022-12-08T23:43:36.504Z,16.87
2022-12-08T23:47:43.258Z,16.33
2022-12-08T23:51:48.504Z,16.47
2022-12-08T23:56:02.489Z,16.43
